sensor_id;sensor_type;location;lat;lon;timestamp;pressure;altitude;pressure_sealevel;temperature;humidity
77410;BME280;66481;51.332;22.804;2023-11-21T00:01:25;99000.47;;;-0.88;100.00
77410;BME280;66481;51.332;22.804;2023-11-21T00:05:26;98998.69;;;-0.87;100.00
77410;BME280;66481;51.332;22.804;2023-11-21T00:09:27;98985.09;;;-0.94;100.00
77410;BME280;66481;51.332;22.804;2023-11-21T00:13:29;99001.34;;;-0.89;100.00
77410;BME280;66481;51.332;22.804;2023-11-21T00:17:30;98997.25;;;-0.95;100.00
77410;BME280;66481;51.332;22.804;2023-11-21T00:21:31;99006.72;;;-0.93;100.00
77410;BME280;66481;51.332;22.804;2023-11-21T00:25:32;99011.78;;;-0.90;100.00
77410;BME280;66481;51.332;22.804;2023-11-21T00:29:32;98995.53;;;-0.96;100.00
77410;BME280;66481;51.332;22.804;2023-11-21T00:33:35;99014.75;;;-1.00;100.00
77410;BME280;66481;51.332;22.804;2023-11-21T00:37:35;99011.53;;;-1.06;100.00
77410;BME280;66481;51.332;22.804;2023-11-21T00:41:37;99026.28;;;-1.07;100.00
77410;BME280;66481;51.332;22.804;2023-11-21T00:45:38;99032.53;;;-1.13;100.00
77410;BME280;66481;51.332;22.804;2023-11-21T00:49:41;99026.34;;;-1.08;100.00
77410;BME280;66481;51.332;22.804;2023-11-21T00:53:42;99028.88;;;-1.07;100.00
77410;BME280;66481;51.332;22.804;2023-11-21T00:57:43;99034.00;;;-1.05;100.00
77410;BME280;66481;51.332;22.804;2023-11-21T01:01:44;99041.19;;;-1.12;100.00
77410;BME280;66481;51.332;22.804;2023-11-21T01:05:45;99038.69;;;-1.15;100.00
77410;BME280;66481;51.332;22.804;2023-11-21T01:09:46;99057.66;;;-1.13;100.00
77410;BME280;66481;51.332;22.804;2023-11-21T01:13:47;99080.06;;;-1.10;100.00
77410;BME280;66481;51.332;22.804;2023-11-21T01:17:47;99080.16;;;-1.14;100.00
77410;BME280;66481;51.332;22.804;2023-11-21T01:21:48;99089.47;;;-1.08;100.00
77410;BME280;66481;51.332;22.804;2023-11-21T01:25:49;99078.25;;;-1.08;100.00
77410;BME280;66481;51.332;22.804;2023-11-21T01:29:52;99081.09;;;-1.16;100.00
77410;BME280;66481;51.332;22.804;2023-11-21T01:33:54;99093.09;;;-1.12;100.00
77410;BME280;66481;51.332;22.804;2023-11-21T01:37:55;99093.72;;;-1.05;100.00
77410;BME280;66481;51.332;22.804;2023-11-21T01:41:57;99091.44;;;-1.15;100.00
77410;BME280;66481;51.332;22.804;2023-11-21T01:46:01;99093.34;;;-1.20;100.00
77410;BME280;66481;51.332;22.804;2023-11-21T01:50:03;99099.19;;;-1.13;100.00
77410;BME280;66481;51.332;22.804;2023-11-21T01:54:06;99099.41;;;-1.19;100.00
77410;BME280;66481;51.332;22.804;2023-11-21T01:58:07;99110.41;;;-1.13;100.00
77410;BME280;66481;51.332;22.804;2023-11-21T02:02:10;99107.66;;;-1.08;100.00
77410;BME280;66481;51.332;22.804;2023-11-21T02:06:11;99103.28;;;-1.07;100.00
77410;BME280;66481;51.332;22.804;2023-11-21T02:10:12;99114.59;;;-1.08;100.00
77410;BME280;66481;51.332;22.804;2023-11-21T02:14:15;99117.28;;;-1.11;100.00
77410;BME280;66481;51.332;22.804;2023-11-21T02:18:17;99120.00;;;-1.15;100.00
77410;BME280;66481;51.332;22.804;2023-11-21T02:22:19;99132.97;;;-1.15;100.00
77410;BME280;66481;51.332;22.804;2023-11-21T02:26:20;99145.69;;;-1.07;100.00
77410;BME280;66481;51.332;22.804;2023-11-21T02:30:22;99156.81;;;-1.03;100.00
77410;BME280;66481;51.332;22.804;2023-11-21T02:34:23;99154.19;;;-1.02;100.00
77410;BME280;66481;51.332;22.804;2023-11-21T02:38:25;99161.09;;;-1.02;100.00
77410;BME280;66481;51.332;22.804;2023-11-21T02:42:26;99168.09;;;-1.04;100.00
77410;BME280;66481;51.332;22.804;2023-11-21T02:46:27;99165.72;;;-1.10;100.00
77410;BME280;66481;51.332;22.804;2023-11-21T02:50:28;99169.97;;;-1.08;100.00
77410;BME280;66481;51.332;22.804;2023-11-21T02:54:30;99170.09;;;-1.13;100.00
77410;BME280;66481;51.332;22.804;2023-11-21T02:58:32;99172.84;;;-1.16;100.00
77410;BME280;66481;51.332;22.804;2023-11-21T03:02:33;99178.75;;;-1.12;100.00
77410;BME280;66481;51.332;22.804;2023-11-21T03:06:37;99178.72;;;-1.10;100.00
77410;BME280;66481;51.332;22.804;2023-11-21T03:10:38;99180.44;;;-1.11;100.00
77410;BME280;66481;51.332;22.804;2023-11-21T03:14:39;99183.97;;;-1.12;100.00
77410;BME280;66481;51.332;22.804;2023-11-21T03:18:40;99189.88;;;-1.08;100.00
77410;BME280;66481;51.332;22.804;2023-11-21T03:22:41;99188.28;;;-1.13;100.00
77410;BME280;66481;51.332;22.804;2023-11-21T03:26:44;99184.84;;;-1.13;100.00
77410;BME280;66481;51.332;22.804;2023-11-21T03:30:45;99198.78;;;-1.16;100.00
77410;BME280;66481;51.332;22.804;2023-11-21T03:34:57;99192.81;;;-1.18;100.00
77410;BME280;66481;51.332;22.804;2023-11-21T03:38:58;99198.06;;;-1.19;100.00
77410;BME280;66481;51.332;22.804;2023-11-21T03:42:59;99184.25;;;-1.21;100.00
77410;BME280;66481;51.332;22.804;2023-11-21T03:47:00;99202.22;;;-1.15;100.00
77410;BME280;66481;51.332;22.804;2023-11-21T03:51:01;99197.91;;;-1.16;100.00
77410;BME280;66481;51.332;22.804;2023-11-21T03:55:02;99192.84;;;-1.19;100.00
77410;BME280;66481;51.332;22.804;2023-11-21T03:59:03;99189.16;;;-1.12;100.00
77410;BME280;66481;51.332;22.804;2023-11-21T04:03:04;99193.56;;;-1.14;100.00
77410;BME280;66481;51.332;22.804;2023-11-21T04:07:05;99199.31;;;-1.06;100.00
77410;BME280;66481;51.332;22.804;2023-11-21T04:11:06;99193.69;;;-1.19;100.00
77410;BME280;66481;51.332;22.804;2023-11-21T04:15:07;99198.06;;;-1.19;100.00
77410;BME280;66481;51.332;22.804;2023-11-21T04:19:09;99201.53;;;-1.20;100.00
77410;BME280;66481;51.332;22.804;2023-11-21T04:23:11;99204.19;;;-1.22;100.00
77410;BME280;66481;51.332;22.804;2023-11-21T04:27:14;99216.28;;;-1.21;100.00
77410;BME280;66481;51.332;22.804;2023-11-21T04:31:15;99208.63;;;-1.25;100.00
77410;BME280;66481;51.332;22.804;2023-11-21T04:35:17;99211.19;;;-1.24;100.00
77410;BME280;66481;51.332;22.804;2023-11-21T04:39:18;99223.00;;;-1.15;100.00
77410;BME280;66481;51.332;22.804;2023-11-21T04:43:21;99234.16;;;-1.13;100.00
77410;BME280;66481;51.332;22.804;2023-11-21T04:47:22;99228.19;;;-1.15;100.00
77410;BME280;66481;51.332;22.804;2023-11-21T04:51:24;99233.66;;;-1.23;100.00
77410;BME280;66481;51.332;22.804;2023-11-21T04:55:25;99237.13;;;-1.24;100.00
77410;BME280;66481;51.332;22.804;2023-11-21T04:59:28;99236.38;;;-1.27;100.00
77410;BME280;66481;51.332;22.804;2023-11-21T05:03:29;99250.09;;;-1.24;100.00
77410;BME280;66481;51.332;22.804;2023-11-21T05:07:31;99247.50;;;-1.24;100.00
77410;BME280;66481;51.332;22.804;2023-11-21T05:11:33;99258.59;;;-1.19;100.00
77410;BME280;66481;51.332;22.804;2023-11-21T05:15:34;99256.75;;;-1.15;100.00
77410;BME280;66481;51.332;22.804;2023-11-21T05:19:35;99247.97;;;-1.13;100.00
77410;BME280;66481;51.332;22.804;2023-11-21T05:23:36;99244.47;;;-1.10;100.00
77410;BME280;66481;51.332;22.804;2023-11-21T05:27:38;99239.31;;;-1.11;100.00
77410;BME280;66481;51.332;22.804;2023-11-21T05:31:39;99248.75;;;-1.09;100.00
77410;BME280;66481;51.332;22.804;2023-11-21T05:35:42;99250.38;;;-1.06;100.00
77410;BME280;66481;51.332;22.804;2023-11-21T05:39:44;99246.91;;;-1.05;100.00
77410;BME280;66481;51.332;22.804;2023-11-21T05:43:45;99241.75;;;-1.07;100.00
77410;BME280;66481;51.332;22.804;2023-11-21T05:47:46;99237.47;;;-1.08;100.00
77410;BME280;66481;51.332;22.804;2023-11-21T05:51:47;99242.91;;;-1.16;100.00
77410;BME280;66481;51.332;22.804;2023-11-21T05:55:48;99242.91;;;-1.16;100.00
77410;BME280;66481;51.332;22.804;2023-11-21T05:59:49;99242.13;;;-1.18;100.00
77410;BME280;66481;51.332;22.804;2023-11-21T06:03:50;99251.66;;;-1.18;100.00
77410;BME280;66481;51.332;22.804;2023-11-21T06:07:53;99249.97;;;-1.19;100.00
77410;BME280;66481;51.332;22.804;2023-11-21T06:11:55;99266.25;;;-1.14;100.00
77410;BME280;66481;51.332;22.804;2023-11-21T06:15:56;99272.28;;;-1.14;100.00
77410;BME280;66481;51.332;22.804;2023-11-21T06:19:57;99267.03;;;-1.12;100.00
77410;BME280;66481;51.332;22.804;2023-11-21T06:23:58;99259.28;;;-1.14;100.00
77410;BME280;66481;51.332;22.804;2023-11-21T06:27:59;99246.09;;;-1.07;100.00
77410;BME280;66481;51.332;22.804;2023-11-21T06:32:00;99256.56;;;-1.09;100.00
77410;BME280;66481;51.332;22.804;2023-11-21T06:36:01;99243.50;;;-1.07;100.00
77410;BME280;66481;51.332;22.804;2023-11-21T06:40:03;99234.03;;;-1.08;100.00
77410;BME280;66481;51.332;22.804;2023-11-21T06:44:05;99246.78;;;-1.02;100.00
77410;BME280;66481;51.332;22.804;2023-11-21T06:48:06;99232.25;;;-1.08;100.00
77410;BME280;66481;51.332;22.804;2023-11-21T06:52:07;99228.09;;;-1.12;100.00
77410;BME280;66481;51.332;22.804;2023-11-21T06:56:18;99237.50;;;-1.09;100.00
77410;BME280;66481;51.332;22.804;2023-11-21T07:00:19;99240.28;;;-1.14;100.00
77410;BME280;66481;51.332;22.804;2023-11-21T07:04:20;99233.38;;;-1.15;100.00
77410;BME280;66481;51.332;22.804;2023-11-21T07:08:22;99225.50;;;-1.12;100.00
77410;BME280;66481;51.332;22.804;2023-11-21T07:12:23;99228.81;;;-1.08;100.00
77410;BME280;66481;51.332;22.804;2023-11-21T07:16:26;99227.03;;;-1.06;100.00
77410;BME280;66481;51.332;22.804;2023-11-21T07:20:28;99229.56;;;-1.05;100.00
77410;BME280;66481;51.332;22.804;2023-11-21T07:24:32;99226.19;;;-1.07;100.00
77410;BME280;66481;51.332;22.804;2023-11-21T07:28:33;99222.41;;;-0.98;100.00
77410;BME280;66481;51.332;22.804;2023-11-21T07:32:42;99224.38;;;-1.05;100.00
77410;BME280;66481;51.332;22.804;2023-11-21T07:36:43;99224.44;;;-1.06;100.00
77410;BME280;66481;51.332;22.804;2023-11-21T07:40:44;99216.28;;;-1.21;100.00
77410;BME280;66481;51.332;22.804;2023-11-21T07:44:45;99225.50;;;-1.12;100.00
77410;BME280;66481;51.332;22.804;2023-11-21T07:48:47;99233.06;;;-1.06;100.00
77410;BME280;66481;51.332;22.804;2023-11-21T07:52:48;99229.56;;;-1.05;100.00
77410;BME280;66481;51.332;22.804;2023-11-21T07:56:50;99221.84;;;-1.06;100.00
77410;BME280;66481;51.332;22.804;2023-11-21T08:00:51;99227.91;;;-1.07;100.00
77410;BME280;66481;51.332;22.804;2023-11-21T08:04:52;99225.59;;;-1.15;100.00
77410;BME280;66481;51.332;22.804;2023-11-21T08:08:53;99225.69;;;-1.18;100.00
77410;BME280;66481;51.332;22.804;2023-11-21T08:12:54;99213.69;;;-1.21;100.00
77410;BME280;66481;51.332;22.804;2023-11-21T08:16:55;99214.50;;;-1.20;100.00
77410;BME280;66481;51.332;22.804;2023-11-21T08:20:58;99214.69;;;-1.26;100.00
77410;BME280;66481;51.332;22.804;2023-11-21T08:24:59;99217.09;;;-1.20;100.00
77410;BME280;66481;51.332;22.804;2023-11-21T08:29:00;99222.41;;;-1.23;100.00
77410;BME280;66481;51.332;22.804;2023-11-21T08:33:01;99212.88;;;-1.23;100.00
77410;BME280;66481;51.332;22.804;2023-11-21T08:37:03;99223.03;;;-1.17;100.00
77410;BME280;66481;51.332;22.804;2023-11-21T08:41:06;99222.16;;;-1.16;100.00
77410;BME280;66481;51.332;22.804;2023-11-21T08:45:09;99227.59;;;-1.23;100.00
77410;BME280;66481;51.332;22.804;2023-11-21T08:49:11;99230.03;;;-1.19;100.00
77410;BME280;66481;51.332;22.804;2023-11-21T08:53:12;99236.66;;;-1.10;100.00
77410;BME280;66481;51.332;22.804;2023-11-21T08:57:13;99228.81;;;-1.08;100.00
77410;BME280;66481;51.332;22.804;2023-11-21T09:01:14;99233.94;;;-1.05;100.00
77410;BME280;66481;51.332;22.804;2023-11-21T09:05:15;99228.03;;;-1.10;100.00
77410;BME280;66481;51.332;22.804;2023-11-21T09:09:17;99232.06;;;-1.02;100.00
77410;BME280;66481;51.332;22.804;2023-11-21T09:13:20;99215.53;;;-0.99;100.00
77410;BME280;66481;51.332;22.804;2023-11-21T09:17:21;99209.63;;;-1.04;100.00
77410;BME280;66481;51.332;22.804;2023-11-21T09:21:22;99208.91;;;-1.08;100.00
77410;BME280;66481;51.332;22.804;2023-11-21T09:25:24;99205.50;;;-1.10;100.00
77410;BME280;66481;51.332;22.804;2023-11-21T09:29:26;99206.16;;;-1.03;100.00
77410;BME280;66481;51.332;22.804;2023-11-21T09:33:27;99210.50;;;-1.04;100.00
77410;BME280;66481;51.332;22.804;2023-11-21T09:37:28;99201.00;;;-1.05;100.00
77410;BME280;66481;51.332;22.804;2023-11-21T09:41:37;99209.63;;;-1.04;100.00
77410;BME280;66481;51.332;22.804;2023-11-21T09:45:40;99214.69;;;-1.00;100.00
77410;BME280;66481;51.332;22.804;2023-11-21T09:49:47;99216.22;;;-0.94;100.00
77410;BME280;66481;51.332;22.804;2023-11-21T09:53:50;99224.28;;;-1.02;100.00
77410;BME280;66481;51.332;22.804;2023-11-21T09:57:56;99231.75;;;-0.92;100.00
77410;BME280;66481;51.332;22.804;2023-11-21T10:01:57;99241.94;;;-0.86;100.00
77410;BME280;66481;51.332;22.804;2023-11-21T10:06:00;99233.28;;;-0.87;100.00
77410;BME280;66481;51.332;22.804;2023-11-21T10:10:02;99226.91;;;-0.78;100.00
77410;BME280;66481;51.332;22.804;2023-11-21T10:14:05;99222.69;;;-0.81;100.00
77410;BME280;66481;51.332;22.804;2023-11-21T10:18:07;99226.53;;;-0.67;100.00
77410;BME280;66481;51.332;22.804;2023-11-21T10:22:09;99226.66;;;-0.70;100.00
77410;BME280;66481;51.332;22.804;2023-11-21T10:26:11;99227.94;;;-0.82;100.00
77410;BME280;66481;51.332;22.804;2023-11-21T10:30:17;99217.59;;;-0.84;100.00
77410;BME280;66481;51.332;22.804;2023-11-21T10:34:20;99218.72;;;-0.91;100.00
77410;BME280;66481;51.332;22.804;2023-11-21T10:38:21;99212.44;;;-0.85;100.00
77410;BME280;66481;51.332;22.804;2023-11-21T10:42:25;99209.66;;;-0.79;100.00
77410;BME280;66481;51.332;22.804;2023-11-21T10:46:28;99221.41;;;-0.69;100.00
77410;BME280;66481;51.332;22.804;2023-11-21T10:50:33;99206.06;;;-0.77;100.00
77410;BME280;66481;51.332;22.804;2023-11-21T10:54:37;99210.47;;;-0.79;100.00
77410;BME280;66481;51.332;22.804;2023-11-21T10:58:39;99210.59;;;-0.82;100.00
77410;BME280;66481;51.332;22.804;2023-11-21T11:02:41;99216.00;;;-0.88;100.00
77410;BME280;66481;51.332;22.804;2023-11-21T11:06:43;99212.41;;;-0.84;100.00
77410;BME280;66481;51.332;22.804;2023-11-21T11:10:50;99212.97;;;-0.76;100.00
77410;BME280;66481;51.332;22.804;2023-11-21T11:14:51;99194.22;;;-0.84;100.00
77410;BME280;66481;51.332;22.804;2023-11-21T11:18:52;99214.44;;;-0.68;100.00
77410;BME280;66481;51.332;22.804;2023-11-21T11:27:44;99206.72;;;-0.70;100.00
77410;BME280;66481;51.332;22.804;2023-11-21T11:32:10;99199.19;;;-0.78;100.00
77410;BME280;66481;51.332;22.804;2023-11-21T11:36:31;99196.31;;;-0.70;100.00
77410;BME280;66481;51.332;22.804;2023-11-21T11:40:48;99195.53;;;-0.72;100.00
77410;BME280;66481;51.332;22.804;2023-11-21T11:44:53;99203.94;;;-0.65;100.00
77410;BME280;66481;51.332;22.804;2023-11-21T11:49:04;99200.38;;;-0.63;100.00
77410;BME280;66481;51.332;22.804;2023-11-21T11:53:13;99206.03;;;-0.75;100.00
77410;BME280;66481;51.332;22.804;2023-11-21T11:57:16;99217.78;;;-0.65;100.00
77410;BME280;66481;51.332;22.804;2023-11-21T12:01:22;99206.75;;;-0.71;100.00
77410;BME280;66481;51.332;22.804;2023-11-21T12:05:23;99218.75;;;-0.67;100.00
77410;BME280;66481;51.332;22.804;2023-11-21T12:09:29;99211.16;;;-0.73;100.00
77410;BME280;66481;51.332;22.804;2023-11-21T12:13:34;99217.78;;;-0.65;100.00
77410;BME280;66481;51.332;22.804;2023-11-21T12:17:35;99212.25;;;-0.79;100.00
77410;BME280;66481;51.332;22.804;2023-11-21T12:21:36;99209.59;;;-0.78;100.00
77410;BME280;66481;51.332;22.804;2023-11-21T12:25:37;99209.94;;;-0.88;100.00
77410;BME280;66481;51.332;22.804;2023-11-21T12:29:40;99221.84;;;-0.81;100.00
77410;BME280;66481;51.332;22.804;2023-11-21T12:33:41;99231.50;;;-0.85;100.00
77410;BME280;66481;51.332;22.804;2023-11-21T12:37:42;99220.28;;;-0.87;100.00
77410;BME280;66481;51.332;22.804;2023-11-21T12:41:43;99212.63;;;-0.90;100.00
77410;BME280;66481;51.332;22.804;2023-11-21T12:45:45;99229.00;;;-0.88;100.00
77410;BME280;66481;51.332;22.804;2023-11-21T12:49:47;99224.78;;;-0.92;100.00
77410;BME280;66481;51.332;22.804;2023-11-21T12:53:50;99240.38;;;-0.92;100.00
77410;BME280;66481;51.332;22.804;2023-11-21T12:57:53;99250.88;;;-0.95;100.00
77410;BME280;66481;51.332;22.804;2023-11-21T13:02:07;99251.88;;;-0.99;100.00
77410;BME280;66481;51.332;22.804;2023-11-21T13:06:09;99261.31;;;-0.97;100.00
77410;BME280;66481;51.332;22.804;2023-11-21T13:10:11;99270.00;;;-0.98;100.00
77410;BME280;66481;51.332;22.804;2023-11-21T13:14:12;99275.19;;;-0.98;100.00
77410;BME280;66481;51.332;22.804;2023-11-21T13:18:13;99279.56;;;-0.98;100.00
77410;BME280;66481;51.332;22.804;2023-11-21T13:22:13;99266.09;;;-1.11;100.00
77410;BME280;66481;51.332;22.804;2023-11-21T13:26:15;99260.22;;;-1.16;100.00
77410;BME280;66481;51.332;22.804;2023-11-21T13:30:16;99270.56;;;-1.15;100.00
77410;BME280;66481;51.332;22.804;2023-11-21T13:34:24;99281.06;;;-1.18;100.00
77410;BME280;66481;51.332;22.804;2023-11-21T13:38:28;99283.59;;;-1.16;100.00
77410;BME280;66481;51.332;22.804;2023-11-21T13:42:33;99282.03;;;-1.22;100.00
77410;BME280;66481;51.332;22.804;2023-11-21T13:46:35;99293.44;;;-1.26;100.00
77410;BME280;66481;51.332;22.804;2023-11-21T13:50:38;99301.97;;;-1.22;100.00
77410;BME280;66481;51.332;22.804;2023-11-21T13:54:43;99296.09;;;-1.27;100.00
77410;BME280;66481;51.332;22.804;2023-11-21T13:58:44;99296.22;;;-1.32;100.00
77410;BME280;66481;51.332;22.804;2023-11-21T14:02:48;99309.91;;;-1.27;100.00
77410;BME280;66481;51.332;22.804;2023-11-21T14:06:50;99312.59;;;-1.30;100.00
77410;BME280;66481;51.332;22.804;2023-11-21T14:10:55;99328.16;;;-1.30;100.00
77410;BME280;66481;51.332;22.804;2023-11-21T14:15:00;99319.66;;;-1.35;100.00
77410;BME280;66481;51.332;22.804;2023-11-21T14:19:04;99336.91;;;-1.33;100.00
77410;BME280;66481;51.332;22.804;2023-11-21T14:23:10;99330.91;;;-1.35;100.00
77410;BME280;66481;51.332;22.804;2023-11-21T14:27:11;99336.16;;;-1.36;100.00
77410;BME280;66481;51.332;22.804;2023-11-21T14:31:12;99346.22;;;-1.27;100.00
77410;BME280;66481;51.332;22.804;2023-11-21T14:35:16;99348.91;;;-1.30;100.00
77410;BME280;66481;51.332;22.804;2023-11-21T14:39:17;99349.63;;;-1.25;100.00
77410;BME280;66481;51.332;22.804;2023-11-21T14:43:27;99349.78;;;-1.29;100.00
77410;BME280;66481;51.332;22.804;2023-11-21T14:47:30;99342.25;;;-1.39;100.00
77410;BME280;66481;51.332;22.804;2023-11-21T14:51:33;99349.09;;;-1.35;100.00
77410;BME280;66481;51.332;22.804;2023-11-21T14:55:44;99352.56;;;-1.36;100.00
77410;BME280;66481;51.332;22.804;2023-11-21T14:59:51;99350.94;;;-1.38;100.00
77410;BME280;66481;51.332;22.804;2023-11-21T15:03:52;99343.53;;;-1.50;100.00
77410;BME280;66481;51.332;22.804;2023-11-21T15:07:55;99351.13;;;-1.46;100.00
77410;BME280;66481;51.332;22.804;2023-11-21T15:12:12;99353.81;;;-1.49;100.00
77410;BME280;66481;51.332;22.804;2023-11-21T15:16:16;99364.41;;;-1.55;100.00
77410;BME280;66481;51.332;22.804;2023-11-21T15:20:17;99362.59;;;-1.53;100.00
77410;BME280;66481;51.332;22.804;2023-11-21T15:24:21;99360.91;;;-1.54;100.00
77410;BME280;66481;51.332;22.804;2023-11-21T15:28:22;99369.53;;;-1.54;100.00
77410;BME280;66481;51.332;22.804;2023-11-21T15:32:25;99361.72;;;-1.52;100.00
77410;BME280;66481;51.332;22.804;2023-11-21T15:36:26;99369.38;;;-1.49;100.00
77410;BME280;66481;51.332;22.804;2023-11-21T15:40:28;99379.94;;;-1.54;100.00
77410;BME280;66481;51.332;22.804;2023-11-21T15:44:29;99385.06;;;-1.52;100.00
77410;BME280;66481;51.332;22.804;2023-11-21T15:48:37;99398.97;;;-1.55;100.00
77410;BME280;66481;51.332;22.804;2023-11-21T15:52:47;99402.66;;;-1.62;100.00
77410;BME280;66481;51.332;22.804;2023-11-21T15:56:50;99413.97;;;-1.64;100.00
77410;BME280;66481;51.332;22.804;2023-11-21T16:00:53;99417.38;;;-1.62;100.00
77410;BME280;66481;51.332;22.804;2023-11-21T16:04:54;99420.84;;;-1.63;100.00
77410;BME280;66481;51.332;22.804;2023-11-21T16:08:55;99426.06;;;-1.65;100.00
77410;BME280;66481;51.332;22.804;2023-11-21T16:12:59;99427.06;;;-1.69;100.00
77410;BME280;66481;51.332;22.804;2023-11-21T16:17:00;99434.81;;;-1.67;100.00
77410;BME280;66481;51.332;22.804;2023-11-21T16:21:02;99433.09;;;-1.68;100.00
77410;BME280;66481;51.332;22.804;2023-11-21T16:25:03;99442.69;;;-1.72;100.00
77410;BME280;66481;51.332;22.804;2023-11-21T16:29:05;99457.38;;;-1.71;100.00
77410;BME280;66481;51.332;22.804;2023-11-21T16:33:07;99458.16;;;-1.67;100.00
77410;BME280;66481;51.332;22.804;2023-11-21T16:37:08;99466.78;;;-1.67;100.00
77410;BME280;66481;51.332;22.804;2023-11-21T16:41:10;99471.03;;;-1.64;100.00
77410;BME280;66481;51.332;22.804;2023-11-21T16:45:11;99471.22;;;-1.72;100.00
77410;BME280;66481;51.332;22.804;2023-11-21T16:49:13;99461.97;;;-1.81;100.00
77410;BME280;66481;51.332;22.804;2023-11-21T16:53:16;99463.72;;;-1.81;100.00
77410;BME280;66481;51.332;22.804;2023-11-21T16:57:17;99463.06;;;-1.90;100.00
77410;BME280;66481;51.332;22.804;2023-11-21T17:01:19;99469.22;;;-1.94;100.00
77410;BME280;66481;51.332;22.804;2023-11-21T17:05:21;99477.84;;;-1.93;100.00
77410;BME280;66481;51.332;22.804;2023-11-21T17:09:23;99476.13;;;-1.94;100.00
77410;BME280;66481;51.332;22.804;2023-11-21T17:13:24;99473.03;;;-2.07;100.00
77410;BME280;66481;51.332;22.804;2023-11-21T17:17:25;99487.50;;;-1.98;100.00
77410;BME280;66481;51.332;22.804;2023-11-21T17:21:28;99485.09;;;-2.06;100.00
77410;BME280;66481;51.332;22.804;2023-11-21T17:25:29;99496.31;;;-2.05;100.00
77410;BME280;66481;51.332;22.804;2023-11-21T17:29:30;99496.34;;;-2.07;100.00
77410;BME280;66481;51.332;22.804;2023-11-21T17:33:31;99499.06;;;-2.12;100.00
77410;BME280;66481;51.332;22.804;2023-11-21T17:37:32;99496.72;;;-2.21;100.00
77410;BME280;66481;51.332;22.804;2023-11-21T17:41:33;99506.31;;;-2.24;100.00
77410;BME280;66481;51.332;22.804;2023-11-21T17:45:34;99510.50;;;-2.20;100.00
77410;BME280;66481;51.332;22.804;2023-11-21T17:49:36;99497.75;;;-2.28;100.00
77410;BME280;66481;51.332;22.804;2023-11-21T17:53:37;99514.97;;;-2.25;100.00
77410;BME280;66481;51.332;22.804;2023-11-21T17:57:38;99507.22;;;-2.27;100.00
77410;BME280;66481;51.332;22.804;2023-11-21T18:01:40;99514.28;;;-2.34;100.00
77410;BME280;66481;51.332;22.804;2023-11-21T18:05:43;99524.59;;;-2.31;100.00
77410;BME280;66481;51.332;22.804;2023-11-21T18:09:44;99520.28;;;-2.30;100.00
77410;BME280;66481;51.332;22.804;2023-11-21T18:13:45;99531.75;;;-2.40;100.00
77410;BME280;66481;51.332;22.804;2023-11-21T18:17:47;99537.81;;;-2.41;100.00
77410;BME280;66481;51.332;22.804;2023-11-21T18:21:48;99551.59;;;-2.41;100.00
77410;BME280;66481;51.332;22.804;2023-11-21T18:25:49;99561.00;;;-2.35;100.00
77410;BME280;66481;51.332;22.804;2023-11-21T18:29:52;99570.38;;;-2.31;100.00
77410;BME280;66481;51.332;22.804;2023-11-21T18:33:54;99576.44;;;-2.32;100.00
77410;BME280;66481;51.332;22.804;2023-11-21T18:37:56;99563.75;;;-2.43;100.00
77410;BME280;66481;51.332;22.804;2023-11-21T18:41:57;99562.00;;;-2.42;100.00
77410;BME280;66481;51.332;22.804;2023-11-21T18:46:01;99559.59;;;-2.50;100.00
77410;BME280;66481;51.332;22.804;2023-11-21T18:50:05;99566.38;;;-2.44;100.00
77410;BME280;66481;51.332;22.804;2023-11-21T18:54:06;99564.63;;;-2.44;100.00
77410;BME280;66481;51.332;22.804;2023-11-21T18:58:09;99561.41;;;-2.54;100.00
77410;BME280;66481;51.332;22.804;2023-11-21T19:02:10;99559.66;;;-2.53;100.00
77410;BME280;66481;51.332;22.804;2023-11-21T19:06:15;99546.00;;;-2.60;100.00
77410;BME280;66481;51.332;22.804;2023-11-21T19:10:17;99558.06;;;-2.59;100.00
77410;BME280;66481;51.332;22.804;2023-11-21T19:14:20;99566.72;;;-2.60;100.00
77410;BME280;66481;51.332;22.804;2023-11-21T19:18:21;99564.22;;;-2.63;100.00
77410;BME280;66481;51.332;22.804;2023-11-21T19:22:22;99585.00;;;-2.66;100.00
77410;BME280;66481;51.332;22.804;2023-11-21T19:26:24;99597.03;;;-2.65;100.00
77410;BME280;66481;51.332;22.804;2023-11-21T19:30:25;99592.56;;;-2.58;100.00
77410;BME280;66481;51.332;22.804;2023-11-21T19:34:27;99606.28;;;-2.53;100.00
77410;BME280;66481;51.332;22.804;2023-11-21T19:38:31;99609.78;;;-2.54;100.00
77410;BME280;66481;51.332;22.804;2023-11-21T19:42:33;99615.75;;;-2.51;100.00
77410;BME280;66481;51.332;22.804;2023-11-21T19:46:37;99620.06;;;-2.53;100.00
77410;BME280;66481;51.332;22.804;2023-11-21T19:50:39;99626.16;;;-2.54;100.00
77410;BME280;66481;51.332;22.804;2023-11-21T19:54:41;99620.16;;;-2.56;100.00
77410;BME280;66481;51.332;22.804;2023-11-21T19:58:42;99616.66;;;-2.55;100.00
77410;BME280;66481;51.332;22.804;2023-11-21T20:02:44;99622.75;;;-2.56;100.00
77410;BME280;66481;51.332;22.804;2023-11-21T20:06:45;99636.75;;;-2.65;100.00
77410;BME280;66481;51.332;22.804;2023-11-21T20:10:49;99638.31;;;-2.57;100.00
77410;BME280;66481;51.332;22.804;2023-11-21T20:14:51;99633.09;;;-2.54;100.00
77410;BME280;66481;51.332;22.804;2023-11-21T20:18:53;99638.56;;;-2.68;100.00
77410;BME280;66481;51.332;22.804;2023-11-21T20:22:56;99647.16;;;-2.68;100.00
77410;BME280;66481;51.332;22.804;2023-11-21T20:26:58;99643.81;;;-2.71;100.00
77410;BME280;66481;51.332;22.804;2023-11-21T20:31:00;99652.22;;;-2.61;100.00
77410;BME280;66481;51.332;22.804;2023-11-21T20:35:03;99658.28;;;-2.62;100.00
77410;BME280;66481;51.332;22.804;2023-11-21T20:39:08;99659.31;;;-2.70;100.00
77410;BME280;66481;51.332;22.804;2023-11-21T20:43:12;99654.09;;;-2.68;100.00
77410;BME280;66481;51.332;22.804;2023-11-21T20:47:14;99666.19;;;-2.69;100.00
77410;BME280;66481;51.332;22.804;2023-11-21T20:51:17;99667.94;;;-2.71;100.00
77410;BME280;66481;51.332;22.804;2023-11-21T20:55:19;99670.63;;;-2.75;100.00